Time;durP1;ratioP1;P1;durP2;ratioP2;P2;SDS_P1;SDS_P2;PMS_P1;PMS_P2;Temp;Humidity;BMP_temperature;BMP_pressure;BME280_temperature;BME280_humidity;BME280_pressure;Samples;Min_cycle;Max_cycle;Signal;HPM_P1;HPM_P2
2024/03/01 00:00:14;;;;;;;7.38;5.13;;;;;;;7.63;100.00;100307.31;4870675;29;20271;-65
2024/03/01 00:02:43;;;;;;;17.83;6.90;;;;;;;7.67;100.00;100306.72;4878408;29;20248;-64
2024/03/01 00:05:12;;;;;;;10.55;6.78;;;;;;;7.66;100.00;100306.91;4877480;29;20227;-65
2024/03/01 00:07:40;;;;;;;17.27;5.15;;;;;;;7.59;100.00;100304.19;4878968;29;20557;-65
2024/03/01 00:10:10;;;;;;;9.73;4.43;;;;;;;7.65;100.00;100298.00;4876977;29;20227;-65
2024/03/01 00:12:40;;;;;;;12.75;4.70;;;;;;;7.64;100.00;100292.81;4877251;29;20210;-65
2024/03/01 00:15:10;;;;;;;7.35;5.25;;;;;;;7.58;100.00;100285.53;4875519;29;20211;-64
2024/03/01 00:17:39;;;;;;;9.00;5.05;;;;;;;7.64;100.00;100284.75;4877458;29;20204;-64
2024/03/01 00:20:12;;;;;;;13.70;6.43;;;;;;;7.57;100.00;100279.31;4881475;29;20728;-67
2024/03/01 00:22:41;;;;;;;7.63;3.65;;;;;;;7.53;100.00;100282.59;4881946;29;20263;-64
2024/03/01 00:25:10;;;;;;;11.10;6.40;;;;;;;7.52;100.00;100286.31;4881664;29;20194;-65
2024/03/01 00:27:40;;;;;;;8.30;4.80;;;;;;;7.49;100.00;100284.84;4881506;29;20195;-65
2024/03/01 00:30:10;;;;;;;6.75;4.43;;;;;;;7.37;100.00;100272.94;4878289;29;20368;-68
2024/03/01 00:32:40;;;;;;;6.10;4.38;;;;;;;7.27;100.00;100278.69;4882741;29;20224;-66
2024/03/01 00:35:10;;;;;;;8.23;4.65;;;;;;;7.21;100.00;100274.06;4876209;29;20278;-67
2024/03/01 00:37:38;;;;;;;9.85;5.55;;;;;;;7.21;100.00;100268.69;4877109;29;20202;-64
2024/03/01 00:40:09;;;;;;;14.23;5.72;;;;;;;7.10;100.00;100266.56;4879820;29;20223;-65
2024/03/01 00:42:39;;;;;;;21.67;5.70;;;;;;;7.17;100.00;100266.59;4876682;29;20198;-64
2024/03/01 00:45:09;;;;;;;5.60;3.40;;;;;;;7.18;100.00;100269.09;4880768;29;20282;-67
2024/03/01 00:47:45;;;;;;;22.50;8.73;;;;;;;7.19;100.00;100265.38;4880516;29;20232;-65
2024/03/01 00:50:14;;;;;;;21.55;5.05;;;;;;;7.19;100.00;100262.69;4873670;29;20622;-66
2024/03/01 00:52:44;;;;;;;12.10;6.53;;;;;;;7.30;100.00;100254.09;4877181;29;20230;-64
2024/03/01 00:55:13;;;;;;;12.35;8.43;;;;;;;7.40;100.00;100251.03;4880309;29;20203;-67
2024/03/01 00:57:44;;;;;;;15.35;6.03;;;;;;;7.45;100.00;100248.59;4879526;29;20608;-65
2024/03/01 01:00:13;;;;;;;29.38;8.77;;;;;;;7.54;100.00;100252.78;4874318;29;20585;-65
2024/03/01 01:02:43;;;;;;;8.32;6.00;;;;;;;7.52;100.00;100243.22;4879127;29;20282;-65
2024/03/01 01:05:12;;;;;;;8.23;6.28;;;;;;;7.42;100.00;100249.81;4880235;29;20861;-66
2024/03/01 01:07:43;;;;;;;7.85;4.97;;;;;;;7.52;100.00;100241.38;4876675;29;20298;-66
2024/03/01 01:10:12;;;;;;;17.05;5.72;;;;;;;7.63;100.00;100240.81;4879836;29;20234;-67
2024/03/01 01:12:43;;;;;;;17.67;5.65;;;;;;;7.61;100.00;100232.09;4872330;29;20204;-66
2024/03/01 01:15:12;;;;;;;16.58;6.95;;;;;;;7.63;100.00;100234.59;4879275;29;20202;-67
2024/03/01 01:17:42;;;;;;;6.15;4.40;;;;;;;7.60;100.00;100229.63;4879573;29;20198;-66
2024/03/01 01:20:12;;;;;;;6.88;3.95;;;;;;;7.58;100.00;100215.53;4873477;29;20223;-66
2024/03/01 01:22:41;;;;;;;12.40;4.30;;;;;;;7.58;100.00;100215.53;4874171;29;20198;-66
2024/03/01 01:25:10;;;;;;;13.88;6.28;;;;;;;7.53;100.00;100213.44;4879899;29;20194;-66
2024/03/01 01:27:39;;;;;;;10.02;4.25;;;;;;;7.48;100.00;100209.66;4879667;29;20660;-66
2024/03/01 01:30:11;;;;;;;11.75;5.57;;;;;;;7.51;100.00;100204.72;4879328;29;20227;-66
2024/03/01 01:32:40;;;;;;;5.20;4.70;;;;;;;7.52;100.00;100198.31;4873546;29;20274;-66
2024/03/01 01:35:10;;;;;;;7.57;5.38;;;;;;;7.45;100.00;100200.16;4879313;29;20195;-66
2024/03/01 01:37:38;;;;;;;22.33;8.13;;;;;;;7.49;100.00;100196.03;4879249;29;20199;-64
2024/03/01 01:40:09;;;;;;;12.93;6.38;;;;;;;7.58;100.00;100194.81;4874851;29;20214;-67
2024/03/01 01:42:39;;;;;;;15.52;8.10;;;;;;;7.58;100.00;100194.81;4875415;29;20297;-64
2024/03/01 01:45:09;;;;;;;16.25;7.43;;;;;;;7.71;100.00;100197.56;4879227;29;20255;-65
2024/03/01 01:47:38;;;;;;;25.83;7.65;;;;;;;7.65;100.00;100194.88;4879254;29;20195;-64
2024/03/01 01:50:09;;;;;;;15.50;9.18;;;;;;;7.61;100.00;100194.41;4872667;29;20249;-66
2024/03/01 01:52:38;;;;;;;11.90;4.20;;;;;;;7.54;100.00;100195.41;4871564;29;20208;-65
2024/03/01 01:55:08;;;;;;;20.80;8.20;;;;;;;7.60;100.00;100184.66;4879143;29;20195;-66
2024/03/01 01:57:39;;;;;;;14.50;7.47;;;;;;;7.57;100.00;100192.31;4877802;29;20246;-66
2024/03/01 02:00:11;;;;;;;20.17;8.40;;;;;;;7.45;100.00;100183.16;4874763;29;20246;-67
2024/03/01 02:02:42;;;;;;;13.95;8.00;;;;;;;7.50;100.00;100191.47;4879037;29;20194;-66
2024/03/01 02:05:12;;;;;;;15.57;7.20;;;;;;;7.50;100.00;100181.53;4872910;29;20546;-67
2024/03/01 02:07:41;;;;;;;17.27;6.30;;;;;;;7.43;100.00;100177.97;4879165;29;20585;-66
2024/03/01 02:10:16;;;;;;;16.20;8.02;;;;;;;7.46;100.00;100176.72;4879317;29;20222;-67
2024/03/01 02:12:56;;;;;;;13.05;7.75;;;;;;;7.49;100.00;100173.66;4874281;29;20716;-66
2024/03/01 02:15:28;;;;;;;17.90;5.28;;;;;;;7.47;100.00;100173.00;4873831;29;20254;-66
2024/03/01 02:18:01;;;;;;;12.75;7.30;;;;;;;7.49;100.00;100166.41;4875357;29;20218;-65
2024/03/01 02:20:31;;;;;;;22.35;9.30;;;;;;;7.61;100.00;100166.66;4878532;29;20190;-66
2024/03/01 02:23:05;;;;;;;11.07;6.53;;;;;;;7.61;100.00;100167.47;4879151;29;20214;-66
2024/03/01 02:25:35;;;;;;;13.85;6.78;;;;;;;7.51;100.00;100160.81;4873206;29;20209;-65
2024/03/01 02:28:05;;;;;;;12.25;6.00;;;;;;;7.48;100.00;100164.72;4878423;29;20281;-66
2024/03/01 02:30:34;;;;;;;9.40;6.63;;;;;;;7.47;100.00;100162.22;4868148;29;20572;-65
2024/03/01 02:33:03;;;;;;;15.60;6.70;;;;;;;7.48;100.00;100161.22;4878592;29;20262;-66
2024/03/01 02:35:32;;;;;;;13.15;6.63;;;;;;;7.52;100.00;100149.00;4876468;29;20201;-66
2024/03/01 02:38:00;;;;;;;11.95;7.50;;;;;;;7.57;100.00;100149.25;4871959;29;20199;-64
2024/03/01 02:40:29;;;;;;;16.42;7.80;;;;;;;7.47;100.00;100155.00;4878588;29;20285;-65
2024/03/01 02:42:59;;;;;;;20.38;9.05;;;;;;;7.63;100.00;100148.44;4876433;29;20199;-65
2024/03/01 02:45:29;;;;;;;24.45;8.55;;;;;;;7.59;100.00;100145.31;4873106;29;20199;-66
2024/03/01 02:47:57;;;;;;;15.70;9.23;;;;;;;7.62;100.00;100141.38;4877292;29;20550;-66
2024/03/01 02:50:26;;;;;;;14.00;10.50;;;;;;;7.58;100.00;100137.44;4877221;29;20581;-67
2024/03/01 02:52:55;;;;;;;21.90;9.10;;;;;;;7.56;100.00;100136.81;4874718;29;20203;-65
2024/03/01 02:55:24;;;;;;;13.98;6.88;;;;;;;7.57;100.00;100135.78;4871655;29;20202;-66
2024/03/01 02:57:54;;;;;;;15.23;6.15;;;;;;;7.50;100.00;100129.53;4877498;29;20273;-64
2024/03/01 03:00:25;;;;;;;13.38;8.63;;;;;;;7.57;100.00;100130.38;4877837;29;20298;-65
2024/03/01 03:02:54;;;;;;;18.85;7.85;;;;;;;7.59;100.00;100128.34;4874359;29;20572;-65
2024/03/01 03:05:23;;;;;;;11.90;7.22;;;;;;;7.59;100.00;100129.16;4878403;29;20227;-65
2024/03/01 03:07:52;;;;;;;17.13;7.18;;;;;;;7.66;100.00;100126.47;4871883;29;20282;-65
2024/03/01 03:10:21;;;;;;;22.60;8.27;;;;;;;7.76;100.00;100126.94;4877287;29;20221;-65
2024/03/01 03:12:50;;;;;;;24.52;9.98;;;;;;;7.79;100.00;100121.97;4866377;29;20275;-64
2024/03/01 03:15:18;;;;;;;47.20;10.13;;;;;;;7.73;100.00;100128.19;4873109;29;20198;-65
2024/03/01 03:17:48;;;;;;;13.70;7.45;;;;;;;7.67;100.00;100120.06;4875475;29;20202;-64
2024/03/01 03:20:19;;;;;;;10.02;8.05;;;;;;;7.56;100.00;100126.88;4871468;29;20218;-65
2024/03/01 03:22:47;;;;;;;28.05;8.32;;;;;;;7.66;100.00;100123.78;4878293;29;20628;-64
2024/03/01 03:25:16;;;;;;;14.40;8.45;;;;;;;7.63;100.00;100122.34;4868731;29;20202;-64
2024/03/01 03:27:45;;;;;;;27.40;10.48;;;;;;;7.60;100.00;100119.22;4874301;29;20198;-65
2024/03/01 03:30:14;;;;;;;19.45;8.68;;;;;;;7.66;100.00;100121.09;4864695;29;20298;-66
2024/03/01 03:32:44;;;;;;;18.00;8.95;;;;;;;7.71;100.00;100118.63;4881769;29;20218;-66
2024/03/01 03:35:15;;;;;;;20.00;10.10;;;;;;;7.65;100.00;100119.47;4881826;29;20605;-67
2024/03/01 03:37:43;;;;;;;17.67;10.40;;;;;;;7.83;100.00;100117.03;4877747;29;20195;-65
2024/03/01 03:40:15;;;;;;;19.92;6.07;;;;;;;7.75;100.00;100115.31;4875149;29;20218;-66
2024/03/01 03:42:44;;;;;;;29.92;8.00;;;;;;;7.70;100.00;100116.97;4880483;29;20284;-64
2024/03/01 03:45:13;;;;;;;16.85;10.93;;;;;;;7.65;100.00;100119.47;4881194;29;20573;-66
2024/03/01 03:47:42;;;;;;;14.98;8.85;;;;;;;7.65;100.00;100120.25;4877967;29;20207;-66
2024/03/01 03:50:10;;;;;;;21.83;8.50;;;;;;;7.67;100.00;100120.06;4879810;29;20676;-66
2024/03/01 03:52:41;;;;;;;17.75;9.70;;;;;;;7.66;100.00;100119.25;4878201;29;20245;-64
2024/03/01 03:55:10;;;;;;;11.05;7.63;;;;;;;7.75;100.00;100109.94;4881504;29;20206;-66
2024/03/01 03:57:48;;;;;;;17.15;11.20;;;;;;;7.85;100.00;100117.63;4881370;29;20281;-64
2024/03/01 04:00:18;;;;;;;23.13;11.27;;;;;;;7.91;100.00;100111.44;4880567;29;20221;-66
2024/03/01 04:02:46;;;;;;;19.30;8.18;;;;;;;7.74;100.00;100104.78;4874278;29;20202;-65
2024/03/01 04:05:15;;;;;;;35.10;10.45;;;;;;;7.80;100.00;100107.47;4875092;29;20696;-65
2024/03/01 04:07:46;;;;;;;15.75;6.70;;;;;;;7.72;100.00;100109.53;4881213;29;20199;-65
2024/03/01 04:10:15;;;;;;;12.02;6.97;;;;;;;7.77;100.00;100101.66;4880362;29;20350;-66
2024/03/01 04:12:44;;;;;;;22.23;8.85;;;;;;;7.75;100.00;100101.88;4877670;29;20270;-64
2024/03/01 04:15:12;;;;;;;23.58;9.50;;;;;;;7.62;100.00;100098.31;4881123;29;20210;-66
2024/03/01 04:17:41;;;;;;;19.00;9.38;;;;;;;7.71;100.00;100097.09;4879199;29;20198;-65
2024/03/01 04:20:12;;;;;;;13.43;9.90;;;;;;;7.72;100.00;100098.75;4879689;29;20731;-66
2024/03/01 04:22:40;;;;;;;31.85;11.65;;;;;;;7.75;100.00;100098.34;4879443;29;20274;-65
2024/03/01 04:25:11;;;;;;;20.17;11.05;;;;;;;7.81;100.00;100097.53;4877769;29;20199;-65
2024/03/01 04:27:39;;;;;;;25.90;8.43;;;;;;;7.92;100.00;100105.03;4881330;29;20206;-65
2024/03/01 04:30:09;;;;;;;31.98;9.23;;;;;;;7.88;100.00;100094.88;4878320;29;20659;-64
2024/03/01 04:32:38;;;;;;;19.73;8.77;;;;;;;7.76;100.00;100100.00;4874450;29;20242;-65
2024/03/01 04:35:07;;;;;;;20.90;10.60;;;;;;;7.84;100.00;100092.56;4880935;29;20199;-65
2024/03/01 04:37:36;;;;;;;27.27;12.10;;;;;;;7.83;100.00;100100.88;4875288;29;20234;-65
2024/03/01 04:40:05;;;;;;;15.52;8.50;;;;;;;7.85;100.00;100094.22;4872307;29;20218;-65
2024/03/01 04:42:37;;;;;;;28.25;11.57;;;;;;;7.88;100.00;100102.94;4876209;29;20214;-65
2024/03/01 04:45:07;;;;;;;15.88;9.27;;;;;;;7.78;100.00;100100.66;4877980;29;20226;-65
2024/03/01 04:47:36;;;;;;;20.80;9.73;;;;;;;7.81;100.00;100097.53;4877336;29;20692;-64
2024/03/01 04:50:06;;;;;;;31.40;10.52;;;;;;;7.82;100.00;100099.19;4872100;29;20227;-64
2024/03/01 04:52:35;;;;;;;24.73;11.18;;;;;;;7.77;100.00;100096.28;4872516;29;20361;-63
2024/03/01 04:55:06;;;;;;;20.10;6.93;;;;;;;7.87;100.00;100094.03;4879040;29;20203;-66
2024/03/01 04:57:40;;;;;;;20.90;11.75;;;;;;;7.86;100.00;100100.44;4880820;29;20209;-65
2024/03/01 05:00:12;;;;;;;20.60;8.77;;;;;;;7.88;100.00;100103.78;4881050;29;20255;-66
2024/03/01 05:02:41;;;;;;;16.08;8.45;;;;;;;7.89;100.00;100101.91;4875713;29;20201;-64
2024/03/01 05:05:10;;;;;;;11.80;7.53;;;;;;;7.92;100.00;100101.50;4880940;29;20226;-66
2024/03/01 05:07:39;;;;;;;24.02;9.65;;;;;;;7.81;100.00;100108.31;4875125;29;20199;-65
2024/03/01 05:10:10;;;;;;;14.27;9.93;;;;;;;7.85;100.00;100102.31;4879668;29;20227;-65
2024/03/01 05:12:42;;;;;;;22.63;10.23;;;;;;;7.78;100.00;100104.16;4878764;29;20191;-64
2024/03/01 05:15:12;;;;;;;18.90;10.25;;;;;;;7.80;100.00;100110.16;4880375;29;20202;-66
2024/03/01 05:17:43;;;;;;;27.63;10.88;;;;;;;7.90;100.00;100109.78;4876225;29;20569;-66
2024/03/01 05:20:14;;;;;;;25.73;9.57;;;;;;;7.88;100.00;100111.88;4873234;29;20616;-66
2024/03/01 05:22:44;;;;;;;22.90;10.38;;;;;;;8.02;100.00;100105.47;4880306;29;20202;-66
2024/03/01 05:25:15;;;;;;;26.63;10.55;;;;;;;7.94;100.00;100097.56;4879715;29;20191;-65
2024/03/01 05:27:48;;;;;;;12.63;8.27;;;;;;;8.05;100.00;100109.59;4880375;29;20222;-68
2024/03/01 05:30:19;;;;;;;32.40;12.20;;;;;;;7.92;100.00;100105.03;4880182;29;20219;-66
2024/03/01 05:33:08;;;;;;;14.30;9.50;;;;;;;7.95;100.00;100104.59;4871557;29;20672;-66
2024/03/01 05:35:38;;;;;;;14.98;8.82;;;;;;;7.95;100.00;100103.78;4874847;29;20204;-67
2024/03/01 05:38:06;;;;;;;24.13;11.30;;;;;;;8.12;100.00;100105.91;4879701;29;20199;-65
2024/03/01 05:40:37;;;;;;;22.38;8.25;;;;;;;8.06;100.00;100106.72;4877814;29;20606;-66
2024/03/01 05:43:22;;;;;;;13.93;9.80;;;;;;;8.08;100.00;100104.66;4871428;29;20199;-64
2024/03/01 05:45:52;;;;;;;15.57;7.60;;;;;;;8.04;100.00;100098.00;4877388;29;20198;-66
2024/03/01 05:48:23;;;;;;;17.05;9.85;;;;;;;8.03;100.00;100096.34;4879343;29;20250;-66
2024/03/01 05:50:52;;;;;;;22.80;12.20;;;;;;;8.09;100.00;100097.38;4879265;29;20202;-66
2024/03/01 05:53:21;;;;;;;17.25;10.05;;;;;;;8.07;100.00;100103.00;4878667;29;20306;-65
2024/03/01 05:55:50;;;;;;;12.63;7.38;;;;;;;8.03;100.00;100106.31;4877246;29;20198;-65
2024/03/01 05:58:25;;;;;;;14.20;9.05;;;;;;;8.05;100.00;100110.44;4878961;29;20233;-65
2024/03/01 06:00:54;;;;;;;23.55;11.82;;;;;;;8.10;100.00;100107.13;4875829;29;20252;-66
2024/03/01 06:03:24;;;;;;;29.73;8.63;;;;;;;8.14;100.00;100109.19;4873842;29;20215;-66
2024/03/01 06:05:53;;;;;;;17.15;7.32;;;;;;;8.12;100.00;100108.59;4877413;29;20231;-64
2024/03/01 06:08:21;;;;;;;23.75;10.60;;;;;;;8.02;100.00;100105.47;4875411;29;20254;-66
2024/03/01 06:10:50;;;;;;;20.23;8.63;;;;;;;8.10;100.00;100109.81;4877441;29;20230;-66
2024/03/01 06:13:20;;;;;;;15.60;9.15;;;;;;;8.16;100.00;100117.91;4873868;29;20225;-66
2024/03/01 06:15:49;;;;;;;20.65;10.38;;;;;;;8.12;100.00;100116.69;4879502;29;20388;-66
2024/03/01 06:18:18;;;;;;;10.63;9.57;;;;;;;8.21;100.00;100118.13;4879005;29;20206;-66
2024/03/01 06:20:47;;;;;;;18.05;8.48;;;;;;;8.17;100.00;100124.16;4879267;29;20307;-66
2024/03/01 06:23:16;;;;;;;24.80;14.80;;;;;;;8.18;100.00;100120.41;4871661;29;20213;-65
2024/03/01 06:25:45;;;;;;;19.98;9.20;;;;;;;8.18;100.00;100123.91;4876074;29;20238;-67
2024/03/01 06:28:14;;;;;;;14.32;8.27;;;;;;;8.16;100.00;100123.31;4876120;29;20296;-66
2024/03/01 06:30:44;;;;;;;18.60;8.57;;;;;;;8.26;100.00;100129.13;4876472;29;20199;-66
2024/03/01 06:33:13;;;;;;;17.20;8.03;;;;;;;8.20;100.00;100129.94;4873383;29;20682;-65
2024/03/01 06:35:42;;;;;;;20.58;8.57;;;;;;;8.28;100.00;100127.03;4878743;29;20406;-65
2024/03/01 06:38:11;;;;;;;24.95;11.43;;;;;;;8.37;100.00;100130.44;4875738;29;20238;-66
2024/03/01 06:40:39;;;;;;;18.70;9.63;;;;;;;8.32;100.00;100121.28;4871726;29;20195;-64
2024/03/01 06:43:08;;;;;;;22.23;10.80;;;;;;;8.37;100.00;100134.97;4867962;29;20206;-66
2024/03/01 06:45:38;;;;;;;19.08;7.40;;;;;;;8.24;100.00;100133.06;4870493;29;20687;-65
2024/03/01 06:48:08;;;;;;;26.55;14.55;;;;;;;8.35;100.00;100145.13;4875347;29;20292;-63
2024/03/01 06:50:40;;;;;;;27.73;10.82;;;;;;;8.29;100.00;100135.97;4877319;29;20215;-66
2024/03/01 06:53:09;;;;;;;26.30;12.90;;;;;;;8.44;100.00;100143.88;4878632;29;20243;-66
2024/03/01 06:55:38;;;;;;;23.13;11.25;;;;;;;8.57;100.00;100141.19;4878934;29;20203;-67
2024/03/01 06:58:06;;;;;;;18.77;11.68;;;;;;;8.53;100.00;100139.94;4878722;29;20202;-64
2024/03/01 07:00:35;;;;;;;15.93;9.90;;;;;;;8.40;100.00;100123.78;4873938;29;20262;-66
2024/03/01 07:03:04;;;;;;;29.23;9.35;;;;;;;8.66;100.00;100123.78;4871630;29;20199;-67
2024/03/01 07:05:34;;;;;;;20.17;12.20;;;;;;;8.62;100.00;100120.66;4871542;29;20677;-65
2024/03/01 07:08:03;;;;;;;15.90;8.90;;;;;;;8.68;100.00;100121.69;4874148;29;20250;-65
2024/03/01 07:10:32;;;;;;;30.10;11.80;;;;;;;8.79;100.00;100122.94;4878536;29;20289;-66
2024/03/01 07:13:01;;;;;;;17.80;7.28;;;;;;;8.78;100.00;100116.72;4871418;29;20237;-67
2024/03/01 07:15:30;;;;;;;26.58;12.55;;;;;;;8.77;100.00;100123.13;4878386;29;20229;-66
2024/03/01 07:17:59;;;;;;;21.23;8.73;;;;;;;8.68;100.00;100119.00;4875012;29;20238;-65
2024/03/01 07:20:28;;;;;;;20.38;9.75;;;;;;;8.64;100.00;100125.84;4876126;29;20241;-65
2024/03/01 07:22:58;;;;;;;19.33;10.77;;;;;;;8.70;100.00;100127.72;4871985;29;20203;-66
2024/03/01 07:25:27;;;;;;;13.52;9.85;;;;;;;8.59;100.00;100128.34;4875073;29;20263;-66
2024/03/01 07:27:56;;;;;;;16.20;7.97;;;;;;;8.63;100.00;100129.59;4874919;29;20187;-66
2024/03/01 07:30:25;;;;;;;25.38;11.88;;;;;;;8.59;100.00;100134.56;4876716;29;20285;-66
2024/03/01 07:32:54;;;;;;;24.55;11.60;;;;;;;8.77;100.00;100136.63;4877461;29;20207;-65
2024/03/01 07:35:22;;;;;;;22.45;9.55;;;;;;;8.78;100.00;100135.59;4878230;29;20627;-66
2024/03/01 07:37:51;;;;;;;27.00;10.02;;;;;;;8.81;100.00;100137.84;4874026;29;20192;-65
2024/03/01 07:40:22;;;;;;;16.20;9.70;;;;;;;8.75;100.00;100136.03;4870776;29;20598;-65
2024/03/01 07:42:51;;;;;;;16.95;10.25;;;;;;;8.70;100.00;100135.81;4874602;29;20203;-59
2024/03/01 07:45:20;;;;;;;17.98;8.73;;;;;;;8.84;100.00;100133.94;4877452;29;20192;-64
2024/03/01 07:47:49;;;;;;;21.93;10.33;;;;;;;8.87;100.00;100131.63;4881321;29;20214;-66
2024/03/01 07:50:20;;;;;;;21.08;10.32;;;;;;;8.92;100.00;100134.53;4873847;29;20557;-66
2024/03/01 07:52:48;;;;;;;24.92;10.98;;;;;;;8.93;100.00;100138.91;4872308;29;20213;-65
2024/03/01 07:55:17;;;;;;;12.90;7.65;;;;;;;8.83;100.00;100141.19;4875584;29;20633;-64
2024/03/01 07:57:48;;;;;;;18.48;9.65;;;;;;;8.85;100.00;100141.81;4877831;29;20227;-67
2024/03/01 08:00:18;;;;;;;14.45;8.57;;;;;;;8.74;100.00;100142.44;4878321;29;20230;-65
2024/03/01 08:02:47;;;;;;;18.00;10.50;;;;;;;8.81;100.00;100145.16;4877550;29;20203;-65
2024/03/01 08:05:16;;;;;;;18.27;9.60;;;;;;;8.76;100.00;100144.94;4871857;29;20609;-65
2024/03/01 08:07:44;;;;;;;24.30;14.35;;;;;;;8.67;100.00;100144.31;4873734;29;20635;-64
2024/03/01 08:10:16;;;;;;;20.45;8.40;;;;;;;8.84;100.00;100148.25;4877470;29;20642;-64
2024/03/01 08:12:45;;;;;;;30.02;10.55;;;;;;;8.84;100.00;100144.72;4879757;29;20210;-64
2024/03/01 08:15:25;;;;;;;16.13;9.40;;;;;;;8.91;100.00;100149.06;4874481;29;20211;-64
2024/03/01 08:17:54;;;;;;;23.40;9.93;;;;;;;9.04;100.00;100149.06;4877361;29;20767;-65
2024/03/01 08:20:37;;;;;;;14.95;7.03;;;;;;;9.11;100.00;100144.47;4876467;29;20466;-66
2024/03/01 08:23:06;;;;;;;25.43;12.80;;;;;;;9.08;100.00;100155.69;4880041;29;20199;-66
2024/03/01 08:25:35;;;;;;;11.20;6.87;;;;;;;9.13;100.00;100146.97;4877831;29;20463;-65
2024/03/01 08:28:05;;;;;;;13.93;9.67;;;;;;;9.16;100.00;100147.38;4881189;29;20800;-66
2024/03/01 08:30:44;;;;;;;18.33;9.37;;;;;;;9.32;100.00;100153.34;4875431;29;20447;-65
2024/03/01 08:33:17;;;;;;;15.13;8.73;;;;;;;9.59;100.00;100154.91;4878050;29;20479;-65
2024/03/01 08:35:47;;;;;;;11.53;8.00;;;;;;;9.47;100.00;100162.03;4881144;29;20998;-66
2024/03/01 08:38:59;;;;;;;19.27;8.97;;;;;;;9.20;100.00;100163.97;4877148;29;20786;-65
2024/03/01 08:41:28;;;;;;;15.05;7.50;;;;;;;9.16;100.00;100171.66;4875622;29;20435;-67
2024/03/01 08:43:59;;;;;;;30.17;12.07;;;;;;;9.44;100.00;100165.97;4876591;29;20230;-66
2024/03/01 08:46:34;;;;;;;22.77;14.18;;;;;;;9.40;100.00;100163.91;4874197;29;20444;-65
2024/03/01 08:49:44;;;;;;;24.07;10.80;;;;;;;9.33;100.00;100174.75;4876007;29;20251;-64
2024/03/01 08:52:26;;;;;;;21.73;10.02;;;;;;;9.05;100.00;100166.88;4882452;29;20452;-64
2024/03/01 08:55:03;;;;;;;28.75;9.73;;;;;;;9.30;100.00;100175.16;4878892;29;20234;-65
2024/03/01 08:57:33;;;;;;;14.10;8.20;;;;;;;9.31;100.00;100170.59;4879420;29;20624;-66
2024/03/01 09:00:02;;;;;;;19.13;12.77;;;;;;;9.68;100.00;100161.78;4873034;29;20470;-65
2024/03/01 09:02:46;;;;;;;16.35;10.20;;;;;;;9.56;100.00;100163.47;4875866;29;20981;-66
2024/03/01 09:05:16;;;;;;;20.77;12.10;;;;;;;9.68;100.00;100161.78;4880083;29;20202;-64
2024/03/01 09:07:45;;;;;;;19.40;8.00;;;;;;;9.74;100.00;100165.47;4876394;29;20538;-65
2024/03/01 09:10:18;;;;;;;14.63;8.47;;;;;;;9.83;100.00;100158.75;4878844;29;20479;-65
2024/03/01 09:12:47;;;;;;;19.33;10.80;;;;;;;10.08;100.00;100161.56;4869273;29;20854;-63
2024/03/01 09:15:20;;;;;;;11.90;6.53;;;;;;;10.09;100.00;100172.16;4872965;29;20475;-64
2024/03/01 09:17:51;;;;;;;15.13;8.20;;;;;;;10.02;100.00;100168.69;4872494;29;20439;-64
2024/03/01 09:20:31;;;;;;;18.13;10.87;;;;;;;9.77;100.00;100157.78;4879391;29;20915;-65
2024/03/01 09:23:00;;;;;;;24.87;9.50;;;;;;;9.97;100.00;100153.06;4875255;29;20446;-67
2024/03/01 09:25:59;;;;;;;19.40;10.97;;;;;;;10.22;100.00;100160.44;4870649;29;20519;-67
2024/03/01 09:28:28;;;;;;;21.57;8.73;;;;;;;10.54;100.00;100155.88;4874504;29;20887;-65
2024/03/01 09:30:57;;;;;;;21.57;11.03;;;;;;;10.78;100.00;100152.34;4879183;29;20922;-67
2024/03/01 09:33:27;;;;;;;22.20;8.67;;;;;;;10.59;100.00;100147.94;4871865;29;20475;-65
2024/03/01 09:35:57;;;;;;;23.40;10.40;;;;;;;10.71;98.94;100152.41;4879036;29;20464;-66
2024/03/01 09:38:26;;;;;;;23.03;10.30;;;;;;;10.70;99.02;100160.72;4878659;29;20483;-66
2024/03/01 09:41:27;;;;;;;17.70;10.67;;;;;;;10.64;99.75;100162.47;4872950;29;20596;-66
2024/03/01 09:44:07;;;;;;;18.90;7.30;;;;;;;10.66;99.25;100160.34;4872420;29;20851;-67
2024/03/01 09:46:45;;;;;;;17.57;9.53;;;;;;;10.97;98.57;100148.63;4874176;29;20513;-66
2024/03/01 09:49:25;;;;;;;20.57;8.50;;;;;;;11.00;98.09;100150.88;4881266;29;20433;-66
2024/03/01 09:52:01;;;;;;;13.47;8.67;;;;;;;11.13;95.96;100160.78;4877816;29;20438;-67
2024/03/01 09:54:39;;;;;;;10.93;8.47;;;;;;;11.27;94.79;100170.44;4879143;29;20482;-66
2024/03/01 09:57:14;;;;;;;15.37;9.20;;;;;;;11.10;94.03;100155.78;4873607;29;20841;-67
2024/03/01 09:59:48;;;;;;;11.27;8.50;;;;;;;11.30;93.38;100162.69;4877901;29;20459;-67
2024/03/01 10:02:33;;;;;;;19.93;9.87;;;;;;;11.39;92.22;100165.91;4876734;29;20437;-67
2024/03/01 10:05:29;;;;;;;14.80;8.93;;;;;;;11.34;91.62;100160.34;4877150;29;20431;-68
2024/03/01 10:08:09;;;;;;;22.83;8.30;;;;;;;10.99;93.77;100159.25;4877398;29;20432;-67
2024/03/01 10:10:53;;;;;;;16.20;7.60;;;;;;;11.41;92.32;100163.81;4875873;29;20563;-66
2024/03/01 10:13:33;;;;;;;17.53;9.33;;;;;;;11.54;92.22;100163.66;4873708;29;20439;-65
2024/03/01 10:16:15;;;;;;;18.37;10.20;;;;;;;11.63;91.41;100161.47;4885583;29;20475;-65
2024/03/01 10:19:02;;;;;;;19.00;9.50;;;;;;;11.62;90.24;100160.63;4879110;29;20462;-67
2024/03/01 10:21:45;;;;;;;12.30;7.57;;;;;;;11.62;90.11;100148.97;4875554;29;20435;-66
2024/03/01 10:24:29;;;;;;;13.80;6.33;;;;;;;11.45;90.87;100151.47;4877066;29;20435;-65
2024/03/01 10:27:06;;;;;;;21.70;9.87;;;;;;;11.30;91.82;100151.00;4874832;29;20494;-65
2024/03/01 10:29:53;;;;;;;14.93;10.30;;;;;;;11.39;90.60;100146.94;4874230;29;20455;-64
2024/03/01 10:32:34;;;;;;;24.93;7.50;;;;;;;11.41;91.53;100150.28;4872728;29;20439;-66
2024/03/01 10:35:10;;;;;;;20.30;9.27;;;;;;;11.53;91.79;100151.16;4877130;29;20406;-66
2024/03/01 10:37:59;;;;;;;18.83;7.13;;;;;;;11.59;89.49;100158.38;4873988;29;20467;-65
2024/03/01 10:40:33;;;;;;;16.30;8.77;;;;;;;11.62;89.23;100159.81;4875814;29;20570;-64
2024/03/01 10:43:18;;;;;;;22.30;11.60;;;;;;;11.48;89.15;100156.44;4877993;29;20460;-65
2024/03/01 10:45:58;;;;;;;30.43;10.77;;;;;;;11.44;89.81;100157.94;4871824;29;20431;-65
2024/03/01 10:48:34;;;;;;;12.90;8.17;;;;;;;11.47;90.05;100154.78;4877094;29;20449;-64
2024/03/01 10:51:06;;;;;;;17.63;7.17;;;;;;;11.64;90.52;100158.53;4872854;29;20449;-66
2024/03/01 10:53:46;;;;;;;9.57;6.73;;;;;;;11.97;88.04;100151.91;4877860;29;20507;-64
2024/03/01 10:56:15;;;;;;;15.17;6.90;;;;;;;12.05;87.20;100148.88;4876048;29;20506;-64
2024/03/01 10:58:51;;;;;;;15.20;9.40;;;;;;;11.77;87.16;100142.13;4877610;29;20438;-66
2024/03/01 11:01:27;;;;;;;14.37;9.43;;;;;;;12.12;86.63;100146.88;4878025;29;20507;-65
2024/03/01 11:04:05;;;;;;;19.27;10.70;;;;;;;12.39;85.40;100160.91;4874507;29;20416;-65
2024/03/01 11:06:41;;;;;;;9.90;6.97;;;;;;;12.33;83.53;100157.22;4876200;29;20438;-65
2024/03/01 11:09:21;;;;;;;23.47;12.07;;;;;;;12.14;85.32;100152.94;4874073;29;20464;-63
2024/03/01 11:11:58;;;;;;;18.70;12.37;;;;;;;12.27;84.64;100166.28;4874616;29;20426;-66
2024/03/01 11:14:32;;;;;;;16.47;9.47;;;;;;;12.27;84.42;100163.56;4874560;29;20439;-64
2024/03/01 11:17:03;;;;;;;17.17;9.63;;;;;;;11.94;85.01;100155.06;4868701;29;20546;-66
2024/03/01 11:19:34;;;;;;;16.27;9.10;;;;;;;12.11;85.91;100153.38;4875261;29;20470;-66
2024/03/01 11:22:10;;;;;;;14.07;9.10;;;;;;;11.92;86.51;100149.03;4877627;29;20779;-66
2024/03/01 11:24:47;;;;;;;11.23;9.73;;;;;;;12.24;84.80;100141.53;4876857;29;20442;-65
2024/03/01 11:27:24;;;;;;;15.30;9.27;;;;;;;12.43;84.76;100135.78;4868914;29;20471;-66
2024/03/01 11:30:00;;;;;;;15.70;8.43;;;;;;;12.80;82.48;100141.03;4877383;29;20530;-66
2024/03/01 11:32:32;;;;;;;20.97;11.00;;;;;;;12.79;81.37;100133.94;4864853;29;20458;-67
2024/03/01 11:35:10;;;;;;;21.10;8.13;;;;;;;12.82;80.85;100133.50;4874361;29;20524;-65